sensor_id;sensor_type;location;lat;lon;timestamp;P1;durP1;ratioP1;P2;durP2;ratioP2
15952;SDS011;8075;47.766;8.846;2023-04-24T00:01:48;0.98;;;0.60;;
15952;SDS011;8075;47.766;8.846;2023-04-24T00:04:15;1.55;;;0.70;;
15952;SDS011;8075;47.766;8.846;2023-04-24T00:06:42;1.10;;;0.65;;
15952;SDS011;8075;47.766;8.846;2023-04-24T00:09:09;1.50;;;0.70;;
15952;SDS011;8075;47.766;8.846;2023-04-24T00:11:35;0.95;;;0.70;;
15952;SDS011;8075;47.766;8.846;2023-04-24T00:14:01;1.20;;;0.70;;
15952;SDS011;8075;47.766;8.846;2023-04-24T00:16:27;1.13;;;0.70;;
15952;SDS011;8075;47.766;8.846;2023-04-24T00:18:54;0.52;;;0.52;;
15952;SDS011;8075;47.766;8.846;2023-04-24T00:21:20;2.58;;;0.82;;
15952;SDS011;8075;47.766;8.846;2023-04-24T00:23:46;1.15;;;0.77;;
15952;SDS011;8075;47.766;8.846;2023-04-24T00:26:12;0.85;;;0.73;;
15952;SDS011;8075;47.766;8.846;2023-04-24T00:28:38;1.40;;;0.90;;
15952;SDS011;8075;47.766;8.846;2023-04-24T00:31:04;1.20;;;0.80;;
15952;SDS011;8075;47.766;8.846;2023-04-24T00:33:30;1.58;;;1.02;;
15952;SDS011;8075;47.766;8.846;2023-04-24T00:35:56;1.23;;;0.90;;
15952;SDS011;8075;47.766;8.846;2023-04-24T00:38:22;1.25;;;1.10;;
15952;SDS011;8075;47.766;8.846;2023-04-24T00:40:48;1.13;;;0.90;;
15952;SDS011;8075;47.766;8.846;2023-04-24T00:43:18;1.25;;;0.90;;
15952;SDS011;8075;47.766;8.846;2023-04-24T00:45:45;1.40;;;0.70;;
15952;SDS011;8075;47.766;8.846;2023-04-24T00:48:11;0.63;;;0.63;;
15952;SDS011;8075;47.766;8.846;2023-04-24T00:50:38;0.70;;;0.60;;
15952;SDS011;8075;47.766;8.846;2023-04-24T00:53:04;1.17;;;0.68;;
15952;SDS011;8075;47.766;8.846;2023-04-24T00:55:30;0.70;;;0.60;;
15952;SDS011;8075;47.766;8.846;2023-04-24T00:57:56;0.67;;;0.60;;
15952;SDS011;8075;47.766;8.846;2023-04-24T01:00:22;0.60;;;0.50;;
15952;SDS011;8075;47.766;8.846;2023-04-24T01:02:48;1.35;;;0.50;;
15952;SDS011;8075;47.766;8.846;2023-04-24T01:05:14;1.00;;;0.50;;
15952;SDS011;8075;47.766;8.846;2023-04-24T01:07:43;0.50;;;0.50;;
15952;SDS011;8075;47.766;8.846;2023-04-24T01:10:10;1.30;;;0.50;;
15952;SDS011;8075;47.766;8.846;2023-04-24T01:12:36;1.08;;;0.60;;
15952;SDS011;8075;47.766;8.846;2023-04-24T01:15:03;1.10;;;0.60;;
15952;SDS011;8075;47.766;8.846;2023-04-24T01:17:30;1.05;;;0.80;;
15952;SDS011;8075;47.766;8.846;2023-04-24T01:19:56;1.07;;;0.83;;
15952;SDS011;8075;47.766;8.846;2023-04-24T01:22:22;1.60;;;0.80;;
15952;SDS011;8075;47.766;8.846;2023-04-24T01:24:48;1.40;;;0.80;;
15952;SDS011;8075;47.766;8.846;2023-04-24T01:27:14;2.13;;;1.20;;
15952;SDS011;8075;47.766;8.846;2023-04-24T01:29:41;1.65;;;1.20;;
15952;SDS011;8075;47.766;8.846;2023-04-24T01:32:07;1.35;;;1.10;;
15952;SDS011;8075;47.766;8.846;2023-04-24T01:34:33;1.33;;;1.13;;
15952;SDS011;8075;47.766;8.846;2023-04-24T01:36:59;1.08;;;0.88;;
15952;SDS011;8075;47.766;8.846;2023-04-24T01:39:25;1.27;;;0.90;;
15952;SDS011;8075;47.766;8.846;2023-04-24T01:41:53;1.20;;;0.70;;
15952;SDS011;8075;47.766;8.846;2023-04-24T01:44:19;1.55;;;0.70;;
15952;SDS011;8075;47.766;8.846;2023-04-24T01:46:45;1.10;;;0.80;;
15952;SDS011;8075;47.766;8.846;2023-04-24T01:49:11;1.55;;;0.70;;
15952;SDS011;8075;47.766;8.846;2023-04-24T01:51:38;1.10;;;0.70;;
15952;SDS011;8075;47.766;8.846;2023-04-24T01:54:04;1.80;;;0.80;;
15952;SDS011;8075;47.766;8.846;2023-04-24T01:56:31;0.82;;;0.70;;
15952;SDS011;8075;47.766;8.846;2023-04-24T01:58:58;1.23;;;0.80;;
15952;SDS011;8075;47.766;8.846;2023-04-24T02:01:25;0.73;;;0.57;;
15952;SDS011;8075;47.766;8.846;2023-04-24T02:03:51;0.60;;;0.60;;
15952;SDS011;8075;47.766;8.846;2023-04-24T02:06:17;0.77;;;0.68;;
15952;SDS011;8075;47.766;8.846;2023-04-24T02:08:43;1.02;;;0.73;;
15952;SDS011;8075;47.766;8.846;2023-04-24T02:11:09;0.73;;;0.50;;
15952;SDS011;8075;47.766;8.846;2023-04-24T02:13:35;0.90;;;0.60;;
15952;SDS011;8075;47.766;8.846;2023-04-24T02:16:01;0.52;;;0.50;;
15952;SDS011;8075;47.766;8.846;2023-04-24T02:18:27;0.90;;;0.50;;
15952;SDS011;8075;47.766;8.846;2023-04-24T02:20:53;0.40;;;0.40;;
15952;SDS011;8075;47.766;8.846;2023-04-24T02:23:19;1.05;;;0.40;;
15952;SDS011;8075;47.766;8.846;2023-04-24T02:25:45;0.70;;;0.50;;
15952;SDS011;8075;47.766;8.846;2023-04-24T02:28:12;0.70;;;0.40;;
15952;SDS011;8075;47.766;8.846;2023-04-24T02:30:38;1.50;;;0.50;;
15952;SDS011;8075;47.766;8.846;2023-04-24T02:33:04;0.90;;;0.50;;
15952;SDS011;8075;47.766;8.846;2023-04-24T02:35:30;0.80;;;0.50;;
15952;SDS011;8075;47.766;8.846;2023-04-24T02:37:56;0.70;;;0.40;;
15952;SDS011;8075;47.766;8.846;2023-04-24T02:40:22;0.70;;;0.47;;
15952;SDS011;8075;47.766;8.846;2023-04-24T02:42:47;1.52;;;0.43;;
15952;SDS011;8075;47.766;8.846;2023-04-24T02:45:13;0.68;;;0.40;;
15952;SDS011;8075;47.766;8.846;2023-04-24T02:47:39;0.55;;;0.30;;
15952;SDS011;8075;47.766;8.846;2023-04-24T02:50:06;1.00;;;0.40;;
15952;SDS011;8075;47.766;8.846;2023-04-24T02:52:34;0.52;;;0.38;;
15952;SDS011;8075;47.766;8.846;2023-04-24T02:55:00;0.70;;;0.30;;
15952;SDS011;8075;47.766;8.846;2023-04-24T02:57:26;1.35;;;0.35;;
15952;SDS011;8075;47.766;8.846;2023-04-24T02:59:52;0.25;;;0.25;;
15952;SDS011;8075;47.766;8.846;2023-04-24T03:02:18;0.50;;;0.35;;
15952;SDS011;8075;47.766;8.846;2023-04-24T03:04:45;0.70;;;0.40;;
15952;SDS011;8075;47.766;8.846;2023-04-24T03:07:13;0.85;;;0.50;;
15952;SDS011;8075;47.766;8.846;2023-04-24T03:09:39;0.60;;;0.47;;
15952;SDS011;8075;47.766;8.846;2023-04-24T03:12:05;0.55;;;0.40;;
15952;SDS011;8075;47.766;8.846;2023-04-24T03:14:31;1.33;;;0.50;;
15952;SDS011;8075;47.766;8.846;2023-04-24T03:16:57;0.65;;;0.50;;
15952;SDS011;8075;47.766;8.846;2023-04-24T03:19:23;1.20;;;0.55;;
15952;SDS011;8075;47.766;8.846;2023-04-24T03:21:49;0.70;;;0.40;;
15952;SDS011;8075;47.766;8.846;2023-04-24T03:24:15;0.43;;;0.40;;
15952;SDS011;8075;47.766;8.846;2023-04-24T03:26:41;0.60;;;0.40;;
15952;SDS011;8075;47.766;8.846;2023-04-24T03:29:07;1.13;;;0.40;;
15952;SDS011;8075;47.766;8.846;2023-04-24T03:31:33;1.65;;;0.50;;
15952;SDS011;8075;47.766;8.846;2023-04-24T03:33:59;0.55;;;0.38;;
15952;SDS011;8075;47.766;8.846;2023-04-24T03:36:25;1.00;;;0.50;;
15952;SDS011;8075;47.766;8.846;2023-04-24T03:38:52;0.35;;;0.32;;
15952;SDS011;8075;47.766;8.846;2023-04-24T03:41:18;0.95;;;0.40;;
15952;SDS011;8075;47.766;8.846;2023-04-24T03:43:44;0.60;;;0.40;;
15952;SDS011;8075;47.766;8.846;2023-04-24T03:46:10;0.47;;;0.40;;
15952;SDS011;8075;47.766;8.846;2023-04-24T03:48:36;0.88;;;0.40;;
15952;SDS011;8075;47.766;8.846;2023-04-24T03:51:02;0.38;;;0.38;;
15952;SDS011;8075;47.766;8.846;2023-04-24T03:53:28;0.70;;;0.40;;
15952;SDS011;8075;47.766;8.846;2023-04-24T03:55:54;0.68;;;0.40;;
15952;SDS011;8075;47.766;8.846;2023-04-24T03:58:21;0.60;;;0.30;;
15952;SDS011;8075;47.766;8.846;2023-04-24T04:00:47;0.50;;;0.40;;
15952;SDS011;8075;47.766;8.846;2023-04-24T04:03:13;0.80;;;0.47;;
15952;SDS011;8075;47.766;8.846;2023-04-24T04:05:39;0.90;;;0.40;;
15952;SDS011;8075;47.766;8.846;2023-04-24T04:08:05;0.90;;;0.43;;
15952;SDS011;8075;47.766;8.846;2023-04-24T04:10:31;1.20;;;0.40;;
15952;SDS011;8075;47.766;8.846;2023-04-24T04:12:57;1.00;;;0.40;;
15952;SDS011;8075;47.766;8.846;2023-04-24T04:15:23;0.50;;;0.50;;
15952;SDS011;8075;47.766;8.846;2023-04-24T04:17:49;0.57;;;0.40;;
15952;SDS011;8075;47.766;8.846;2023-04-24T04:20:15;0.80;;;0.30;;
15952;SDS011;8075;47.766;8.846;2023-04-24T04:22:41;0.55;;;0.40;;
15952;SDS011;8075;47.766;8.846;2023-04-24T04:25:07;0.65;;;0.30;;
15952;SDS011;8075;47.766;8.846;2023-04-24T04:27:33;0.30;;;0.25;;
15952;SDS011;8075;47.766;8.846;2023-04-24T04:30:00;0.40;;;0.30;;
15952;SDS011;8075;47.766;8.846;2023-04-24T04:32:29;0.68;;;0.38;;
15952;SDS011;8075;47.766;8.846;2023-04-24T04:34:55;0.50;;;0.32;;
15952;SDS011;8075;47.766;8.846;2023-04-24T04:37:21;0.40;;;0.30;;
15952;SDS011;8075;47.766;8.846;2023-04-24T04:39:47;0.80;;;0.40;;
15952;SDS011;8075;47.766;8.846;2023-04-24T04:42:13;0.90;;;0.35;;
15952;SDS011;8075;47.766;8.846;2023-04-24T04:44:40;1.20;;;0.53;;
15952;SDS011;8075;47.766;8.846;2023-04-24T04:47:06;1.33;;;0.40;;
15952;SDS011;8075;47.766;8.846;2023-04-24T04:49:33;0.60;;;0.40;;
15952;SDS011;8075;47.766;8.846;2023-04-24T04:51:59;1.55;;;0.50;;
15952;SDS011;8075;47.766;8.846;2023-04-24T04:54:25;0.35;;;0.35;;
15952;SDS011;8075;47.766;8.846;2023-04-24T04:56:51;0.83;;;0.40;;
15952;SDS011;8075;47.766;8.846;2023-04-24T04:59:17;4.00;;;0.68;;
15952;SDS011;8075;47.766;8.846;2023-04-24T05:01:43;0.98;;;0.60;;
15952;SDS011;8075;47.766;8.846;2023-04-24T05:04:09;1.50;;;0.40;;
15952;SDS011;8075;47.766;8.846;2023-04-24T05:06:35;1.00;;;0.40;;
15952;SDS011;8075;47.766;8.846;2023-04-24T05:09:01;0.60;;;0.50;;
15952;SDS011;8075;47.766;8.846;2023-04-24T05:11:28;0.80;;;0.60;;
15952;SDS011;8075;47.766;8.846;2023-04-24T05:13:54;1.10;;;0.60;;
15952;SDS011;8075;47.766;8.846;2023-04-24T05:16:20;0.85;;;0.70;;
15952;SDS011;8075;47.766;8.846;2023-04-24T05:18:47;0.98;;;0.60;;
15952;SDS011;8075;47.766;8.846;2023-04-24T05:21:13;1.30;;;0.55;;
15952;SDS011;8075;47.766;8.846;2023-04-24T05:23:39;1.00;;;0.60;;
15952;SDS011;8075;47.766;8.846;2023-04-24T05:26:05;0.88;;;0.70;;
15952;SDS011;8075;47.766;8.846;2023-04-24T05:28:31;0.85;;;0.60;;
15952;SDS011;8075;47.766;8.846;2023-04-24T05:30:57;1.55;;;0.70;;
15952;SDS011;8075;47.766;8.846;2023-04-24T05:33:24;0.93;;;0.50;;
15952;SDS011;8075;47.766;8.846;2023-04-24T05:35:50;1.10;;;0.47;;
15952;SDS011;8075;47.766;8.846;2023-04-24T05:38:16;0.65;;;0.50;;
15952;SDS011;8075;47.766;8.846;2023-04-24T05:40:44;1.17;;;0.50;;
15952;SDS011;8075;47.766;8.846;2023-04-24T05:43:10;0.90;;;0.50;;
15952;SDS011;8075;47.766;8.846;2023-04-24T05:45:36;0.60;;;0.60;;
15952;SDS011;8075;47.766;8.846;2023-04-24T05:48:05;1.25;;;0.60;;
15952;SDS011;8075;47.766;8.846;2023-04-24T05:50:31;0.65;;;0.55;;
15952;SDS011;8075;47.766;8.846;2023-04-24T05:52:57;1.17;;;0.88;;
15952;SDS011;8075;47.766;8.846;2023-04-24T05:55:26;2.20;;;1.00;;
15952;SDS011;8075;47.766;8.846;2023-04-24T05:57:52;0.65;;;0.50;;
15952;SDS011;8075;47.766;8.846;2023-04-24T06:00:19;0.80;;;0.60;;
15952;SDS011;8075;47.766;8.846;2023-04-24T06:02:45;2.08;;;0.70;;
15952;SDS011;8075;47.766;8.846;2023-04-24T06:05:12;0.77;;;0.77;;
15952;SDS011;8075;47.766;8.846;2023-04-24T06:07:38;0.77;;;0.70;;
15952;SDS011;8075;47.766;8.846;2023-04-24T06:10:04;1.17;;;0.85;;
15952;SDS011;8075;47.766;8.846;2023-04-24T06:12:30;1.65;;;0.90;;
15952;SDS011;8075;47.766;8.846;2023-04-24T06:14:56;0.90;;;0.80;;
15952;SDS011;8075;47.766;8.846;2023-04-24T06:17:22;1.65;;;0.80;;
15952;SDS011;8075;47.766;8.846;2023-04-24T06:19:48;1.10;;;0.80;;
15952;SDS011;8075;47.766;8.846;2023-04-24T06:22:14;1.40;;;1.00;;
15952;SDS011;8075;47.766;8.846;2023-04-24T06:24:40;2.60;;;1.00;;
15952;SDS011;8075;47.766;8.846;2023-04-24T06:27:06;1.23;;;1.00;;
15952;SDS011;8075;47.766;8.846;2023-04-24T06:29:32;1.73;;;1.00;;
15952;SDS011;8075;47.766;8.846;2023-04-24T06:31:58;1.00;;;0.90;;
15952;SDS011;8075;47.766;8.846;2023-04-24T06:34:25;1.42;;;1.00;;
15952;SDS011;8075;47.766;8.846;2023-04-24T06:36:51;1.90;;;1.20;;
15952;SDS011;8075;47.766;8.846;2023-04-24T06:39:17;2.17;;;1.30;;
15952;SDS011;8075;47.766;8.846;2023-04-24T06:41:43;1.77;;;1.10;;
15952;SDS011;8075;47.766;8.846;2023-04-24T06:44:09;1.67;;;1.33;;
15952;SDS011;8075;47.766;8.846;2023-04-24T06:46:35;2.47;;;1.13;;
15952;SDS011;8075;47.766;8.846;2023-04-24T06:49:01;2.67;;;1.60;;
15952;SDS011;8075;47.766;8.846;2023-04-24T06:51:27;1.63;;;1.15;;
15952;SDS011;8075;47.766;8.846;2023-04-24T06:53:53;1.60;;;1.20;;
15952;SDS011;8075;47.766;8.846;2023-04-24T06:56:21;3.83;;;1.33;;
15952;SDS011;8075;47.766;8.846;2023-04-24T06:58:47;2.58;;;1.42;;
15952;SDS011;8075;47.766;8.846;2023-04-24T07:01:13;2.22;;;1.38;;
15952;SDS011;8075;47.766;8.846;2023-04-24T07:03:39;2.20;;;1.30;;
15952;SDS011;8075;47.766;8.846;2023-04-24T07:06:05;2.00;;;1.50;;
15952;SDS011;8075;47.766;8.846;2023-04-24T07:08:31;1.92;;;1.45;;
15952;SDS011;8075;47.766;8.846;2023-04-24T07:10:58;1.60;;;1.50;;
15952;SDS011;8075;47.766;8.846;2023-04-24T07:13:24;3.97;;;1.50;;
15952;SDS011;8075;47.766;8.846;2023-04-24T07:15:50;1.70;;;1.30;;
15952;SDS011;8075;47.766;8.846;2023-04-24T07:18:18;1.77;;;1.10;;
15952;SDS011;8075;47.766;8.846;2023-04-24T07:20:44;1.30;;;1.20;;
15952;SDS011;8075;47.766;8.846;2023-04-24T07:23:10;2.22;;;1.20;;
15952;SDS011;8075;47.766;8.846;2023-04-24T07:25:36;1.52;;;1.30;;
15952;SDS011;8075;47.766;8.846;2023-04-24T07:28:03;4.22;;;1.58;;
15952;SDS011;8075;47.766;8.846;2023-04-24T07:30:29;2.88;;;1.40;;
15952;SDS011;8075;47.766;8.846;2023-04-24T07:32:57;3.03;;;1.55;;
15952;SDS011;8075;47.766;8.846;2023-04-24T07:35:23;1.88;;;1.50;;
15952;SDS011;8075;47.766;8.846;2023-04-24T07:37:50;2.53;;;1.20;;
15952;SDS011;8075;47.766;8.846;2023-04-24T07:40:16;3.08;;;1.75;;
15952;SDS011;8075;47.766;8.846;2023-04-24T07:42:42;1.55;;;1.45;;
15952;SDS011;8075;47.766;8.846;2023-04-24T07:45:08;2.10;;;1.33;;
15952;SDS011;8075;47.766;8.846;2023-04-24T07:47:35;3.80;;;1.20;;
15952;SDS011;8075;47.766;8.846;2023-04-24T07:50:02;2.15;;;1.50;;
15952;SDS011;8075;47.766;8.846;2023-04-24T07:52:28;2.58;;;1.63;;
15952;SDS011;8075;47.766;8.846;2023-04-24T07:54:55;2.10;;;1.33;;
15952;SDS011;8075;47.766;8.846;2023-04-24T07:57:25;1.13;;;0.90;;
15952;SDS011;8075;47.766;8.846;2023-04-24T07:59:51;1.00;;;0.90;;
15952;SDS011;8075;47.766;8.846;2023-04-24T08:02:17;1.73;;;0.95;;
15952;SDS011;8075;47.766;8.846;2023-04-24T08:04:43;1.98;;;0.90;;
15952;SDS011;8075;47.766;8.846;2023-04-24T08:07:09;0.93;;;0.82;;
15952;SDS011;8075;47.766;8.846;2023-04-24T08:09:37;1.20;;;0.80;;
15952;SDS011;8075;47.766;8.846;2023-04-24T08:12:03;1.35;;;1.00;;
15952;SDS011;8075;47.766;8.846;2023-04-24T08:14:29;1.10;;;0.80;;
15952;SDS011;8075;47.766;8.846;2023-04-24T08:16:55;1.48;;;0.70;;
15952;SDS011;8075;47.766;8.846;2023-04-24T08:19:22;2.50;;;0.90;;
15952;SDS011;8075;47.766;8.846;2023-04-24T08:21:48;0.90;;;0.70;;
15952;SDS011;8075;47.766;8.846;2023-04-24T08:24:14;0.70;;;0.70;;
15952;SDS011;8075;47.766;8.846;2023-04-24T08:26:40;0.85;;;0.75;;
15952;SDS011;8075;47.766;8.846;2023-04-24T08:29:06;0.97;;;0.90;;
15952;SDS011;8075;47.766;8.846;2023-04-24T08:31:32;1.33;;;0.90;;
15952;SDS011;8075;47.766;8.846;2023-04-24T08:33:58;2.45;;;0.70;;
15952;SDS011;8075;47.766;8.846;2023-04-24T08:36:25;1.05;;;0.70;;
15952;SDS011;8075;47.766;8.846;2023-04-24T08:38:51;1.27;;;0.70;;
15952;SDS011;8075;47.766;8.846;2023-04-24T08:41:17;1.17;;;0.70;;
15952;SDS011;8075;47.766;8.846;2023-04-24T08:43:45;1.70;;;0.70;;
15952;SDS011;8075;47.766;8.846;2023-04-24T08:46:12;1.20;;;0.75;;
15952;SDS011;8075;47.766;8.846;2023-04-24T08:48:39;0.80;;;0.80;;
15952;SDS011;8075;47.766;8.846;2023-04-24T08:51:08;1.20;;;0.90;;
15952;SDS011;8075;47.766;8.846;2023-04-24T08:53:35;1.73;;;0.77;;
15952;SDS011;8075;47.766;8.846;2023-04-24T08:56:01;1.23;;;0.97;;
15952;SDS011;8075;47.766;8.846;2023-04-24T08:58:27;0.90;;;0.80;;
15952;SDS011;8075;47.766;8.846;2023-04-24T09:00:54;1.83;;;1.20;;
15952;SDS011;8075;47.766;8.846;2023-04-24T09:03:20;2.65;;;1.50;;
15952;SDS011;8075;47.766;8.846;2023-04-24T09:05:47;2.63;;;1.00;;
15952;SDS011;8075;47.766;8.846;2023-04-24T09:08:14;1.92;;;1.00;;
15952;SDS011;8075;47.766;8.846;2023-04-24T09:10:41;2.05;;;1.10;;
15952;SDS011;8075;47.766;8.846;2023-04-24T09:13:08;1.67;;;1.20;;
15952;SDS011;8075;47.766;8.846;2023-04-24T09:15:35;1.95;;;1.00;;
15952;SDS011;8075;47.766;8.846;2023-04-24T09:18:01;1.67;;;1.00;;
15952;SDS011;8075;47.766;8.846;2023-04-24T09:20:27;1.40;;;1.00;;
15952;SDS011;8075;47.766;8.846;2023-04-24T09:22:54;2.95;;;1.00;;
15952;SDS011;8075;47.766;8.846;2023-04-24T09:25:20;1.65;;;1.15;;
15952;SDS011;8075;47.766;8.846;2023-04-24T09:27:46;3.10;;;1.20;;
15952;SDS011;8075;47.766;8.846;2023-04-24T09:30:13;1.45;;;1.10;;
15952;SDS011;8075;47.766;8.846;2023-04-24T09:32:39;3.22;;;1.20;;
15952;SDS011;8075;47.766;8.846;2023-04-24T09:37:36;1.40;;;1.00;;
15952;SDS011;8075;47.766;8.846;2023-04-24T09:40:13;1.90;;;1.02;;
15952;SDS011;8075;47.766;8.846;2023-04-24T09:42:40;2.95;;;0.93;;
15952;SDS011;8075;47.766;8.846;2023-04-24T09:45:09;1.33;;;1.00;;
15952;SDS011;8075;47.766;8.846;2023-04-24T09:47:36;2.33;;;0.83;;
15952;SDS011;8075;47.766;8.846;2023-04-24T09:50:09;2.55;;;1.08;;
15952;SDS011;8075;47.766;8.846;2023-04-24T09:52:35;1.17;;;0.90;;
15952;SDS011;8075;47.766;8.846;2023-04-24T09:55:03;2.38;;;1.10;;
15952;SDS011;8075;47.766;8.846;2023-04-24T09:57:36;1.88;;;1.20;;
15952;SDS011;8075;47.766;8.846;2023-04-24T10:00:12;2.22;;;0.93;;
15952;SDS011;8075;47.766;8.846;2023-04-24T10:02:38;1.33;;;1.00;;
15952;SDS011;8075;47.766;8.846;2023-04-24T10:05:04;2.85;;;1.20;;
15952;SDS011;8075;47.766;8.846;2023-04-24T10:07:32;1.63;;;1.00;;
15952;SDS011;8075;47.766;8.846;2023-04-24T10:09:58;2.80;;;1.10;;
15952;SDS011;8075;47.766;8.846;2023-04-24T10:12:25;3.95;;;1.08;;
15952;SDS011;8075;47.766;8.846;2023-04-24T10:14:52;1.30;;;0.90;;
15952;SDS011;8075;47.766;8.846;2023-04-24T10:17:18;2.22;;;1.10;;
15952;SDS011;8075;47.766;8.846;2023-04-24T10:19:46;1.27;;;1.00;;
15952;SDS011;8075;47.766;8.846;2023-04-24T10:22:12;2.00;;;1.30;;
15952;SDS011;8075;47.766;8.846;2023-04-24T10:24:41;1.77;;;1.02;;
15952;SDS011;8075;47.766;8.846;2023-04-24T10:27:08;2.38;;;0.95;;
15952;SDS011;8075;47.766;8.846;2023-04-24T10:29:34;1.93;;;1.20;;
15952;SDS011;8075;47.766;8.846;2023-04-24T10:32:01;1.42;;;1.02;;
15952;SDS011;8075;47.766;8.846;2023-04-24T10:34:27;1.33;;;0.90;;
15952;SDS011;8075;47.766;8.846;2023-04-24T10:36:55;2.00;;;1.05;;
15952;SDS011;8075;47.766;8.846;2023-04-24T10:39:21;1.30;;;1.02;;
15952;SDS011;8075;47.766;8.846;2023-04-24T10:41:50;1.48;;;1.00;;
15952;SDS011;8075;47.766;8.846;2023-04-24T10:44:17;2.45;;;1.10;;
15952;SDS011;8075;47.766;8.846;2023-04-24T10:46:43;2.10;;;1.10;;
15952;SDS011;8075;47.766;8.846;2023-04-24T10:49:10;1.27;;;1.10;;
15952;SDS011;8075;47.766;8.846;2023-04-24T11:00:33;3.15;;;1.20;;
15952;SDS011;8075;47.766;8.846;2023-04-24T11:02:37;1.33;;;1.00;;
15952;SDS011;8075;47.766;8.846;2023-04-24T11:05:04;1.63;;;1.10;;
15952;SDS011;8075;47.766;8.846;2023-04-24T11:07:38;1.25;;;0.88;;
15952;SDS011;8075;47.766;8.846;2023-04-24T11:10:25;2.60;;;0.95;;
15952;SDS011;8075;47.766;8.846;2023-04-24T11:12:51;2.30;;;1.00;;
15952;SDS011;8075;47.766;8.846;2023-04-24T11:15:17;1.80;;;0.98;;
15952;SDS011;8075;47.766;8.846;2023-04-24T11:17:45;2.45;;;0.90;;
15952;SDS011;8075;47.766;8.846;2023-04-24T11:20:15;2.25;;;1.13;;
15952;SDS011;8075;47.766;8.846;2023-04-24T11:22:42;2.03;;;0.80;;
15952;SDS011;8075;47.766;8.846;2023-04-24T11:25:08;1.45;;;0.85;;
15952;SDS011;8075;47.766;8.846;2023-04-24T11:27:43;2.25;;;0.90;;
15952;SDS011;8075;47.766;8.846;2023-04-24T11:30:11;1.80;;;1.02;;
15952;SDS011;8075;47.766;8.846;2023-04-24T11:32:40;2.42;;;0.88;;
15952;SDS011;8075;47.766;8.846;2023-04-24T11:37:36;1.40;;;1.00;;
15952;SDS011;8075;47.766;8.846;2023-04-24T11:40:03;2.08;;;1.10;;
15952;SDS011;8075;47.766;8.846;2023-04-24T11:42:39;1.08;;;0.90;;
15952;SDS011;8075;47.766;8.846;2023-04-24T11:45:13;2.13;;;1.00;;
15952;SDS011;8075;47.766;8.846;2023-04-24T11:47:39;1.20;;;0.98;;
15952;SDS011;8075;47.766;8.846;2023-04-24T11:50:06;3.40;;;1.00;;
15952;SDS011;8075;47.766;8.846;2023-04-24T11:52:33;1.20;;;0.90;;
15952;SDS011;8075;47.766;8.846;2023-04-24T11:55:02;2.00;;;0.90;;
15952;SDS011;8075;47.766;8.846;2023-04-24T11:57:28;1.35;;;0.80;;
15952;SDS011;8075;47.766;8.846;2023-04-24T11:59:59;2.67;;;1.10;;
15952;SDS011;8075;47.766;8.846;2023-04-24T12:02:25;1.73;;;1.00;;
15952;SDS011;8075;47.766;8.846;2023-04-24T12:04:55;1.87;;;1.00;;
15952;SDS011;8075;47.766;8.846;2023-04-24T12:07:21;3.55;;;1.10;;
15952;SDS011;8075;47.766;8.846;2023-04-24T12:09:54;2.05;;;0.93;;
15952;SDS011;8075;47.766;8.846;2023-04-24T12:12:23;3.00;;;0.85;;
15952;SDS011;8075;47.766;8.846;2023-04-24T12:14:53;1.73;;;0.98;;
15952;SDS011;8075;47.766;8.846;2023-04-24T12:17:29;2.72;;;1.02;;
15952;SDS011;8075;47.766;8.846;2023-04-24T12:19:59;1.30;;;0.85;;
15952;SDS011;8075;47.766;8.846;2023-04-24T12:22:26;1.50;;;1.00;;
15952;SDS011;8075;47.766;8.846;2023-04-24T12:24:55;1.20;;;0.95;;
15952;SDS011;8075;47.766;8.846;2023-04-24T12:27:22;1.60;;;1.00;;
15952;SDS011;8075;47.766;8.846;2023-04-24T12:30:12;2.55;;;1.10;;
15952;SDS011;8075;47.766;8.846;2023-04-24T12:32:40;2.00;;;1.05;;
15952;SDS011;8075;47.766;8.846;2023-04-24T12:35:06;3.10;;;1.23;;
15952;SDS011;8075;47.766;8.846;2023-04-24T12:37:33;1.75;;;0.98;;
15952;SDS011;8075;47.766;8.846;2023-04-24T12:40:02;1.58;;;0.80;;
15952;SDS011;8075;47.766;8.846;2023-04-24T12:42:29;1.60;;;0.90;;
15952;SDS011;8075;47.766;8.846;2023-04-24T12:44:56;2.17;;;0.90;;
15952;SDS011;8075;47.766;8.846;2023-04-24T12:47:23;2.35;;;1.00;;
15952;SDS011;8075;47.766;8.846;2023-04-24T12:49:50;1.52;;;0.80;;
15952;SDS011;8075;47.766;8.846;2023-04-24T12:52:17;2.67;;;0.90;;
15952;SDS011;8075;47.766;8.846;2023-04-24T12:54:44;1.50;;;1.00;;
15952;SDS011;8075;47.766;8.846;2023-04-24T12:57:10;1.48;;;1.10;;
15952;SDS011;8075;47.766;8.846;2023-04-24T12:59:36;2.80;;;1.00;;
15952;SDS011;8075;47.766;8.846;2023-04-24T13:02:04;1.88;;;1.00;;
15952;SDS011;8075;47.766;8.846;2023-04-24T13:04:30;1.48;;;1.08;;
15952;SDS011;8075;47.766;8.846;2023-04-24T13:06:56;1.30;;;0.90;;
15952;SDS011;8075;47.766;8.846;2023-04-24T13:09:22;2.38;;;1.17;;
15952;SDS011;8075;47.766;8.846;2023-04-24T13:11:49;1.60;;;1.00;;
15952;SDS011;8075;47.766;8.846;2023-04-24T13:14:15;1.77;;;0.80;;
15952;SDS011;8075;47.766;8.846;2023-04-24T13:16:41;1.55;;;0.90;;
15952;SDS011;8075;47.766;8.846;2023-04-24T13:19:07;2.97;;;0.90;;
15952;SDS011;8075;47.766;8.846;2023-04-24T13:21:33;1.40;;;0.98;;
15952;SDS011;8075;47.766;8.846;2023-04-24T13:23:59;2.40;;;1.10;;
15952;SDS011;8075;47.766;8.846;2023-04-24T13:26:25;2.53;;;0.90;;
15952;SDS011;8075;47.766;8.846;2023-04-24T13:28:51;1.20;;;0.90;;
15952;SDS011;8075;47.766;8.846;2023-04-24T13:31:17;2.90;;;0.90;;
15952;SDS011;8075;47.766;8.846;2023-04-24T13:33:43;1.40;;;0.77;;
15952;SDS011;8075;47.766;8.846;2023-04-24T13:36:09;1.52;;;1.02;;
15952;SDS011;8075;47.766;8.846;2023-04-24T13:38:35;2.08;;;0.93;;
15952;SDS011;8075;47.766;8.846;2023-04-24T13:41:01;1.80;;;1.10;;
15952;SDS011;8075;47.766;8.846;2023-04-24T13:43:27;3.00;;;1.10;;
15952;SDS011;8075;47.766;8.846;2023-04-24T13:45:53;1.65;;;0.90;;
15952;SDS011;8075;47.766;8.846;2023-04-24T13:48:19;2.00;;;0.82;;
15952;SDS011;8075;47.766;8.846;2023-04-24T13:50:45;1.73;;;0.97;;
15952;SDS011;8075;47.766;8.846;2023-04-24T13:53:13;2.28;;;0.98;;
15952;SDS011;8075;47.766;8.846;2023-04-24T13:55:39;2.20;;;0.80;;
15952;SDS011;8075;47.766;8.846;2023-04-24T13:58:05;1.83;;;0.80;;
15952;SDS011;8075;47.766;8.846;2023-04-24T14:00:32;1.90;;;0.90;;
15952;SDS011;8075;47.766;8.846;2023-04-24T14:02:58;2.28;;;0.98;;
15952;SDS011;8075;47.766;8.846;2023-04-24T14:05:24;1.58;;;1.05;;
15952;SDS011;8075;47.766;8.846;2023-04-24T14:07:50;1.92;;;1.05;;
15952;SDS011;8075;47.766;8.846;2023-04-24T14:10:16;2.17;;;1.10;;
15952;SDS011;8075;47.766;8.846;2023-04-24T14:12:42;1.45;;;1.00;;
15952;SDS011;8075;47.766;8.846;2023-04-24T14:15:09;2.03;;;0.80;;
15952;SDS011;8075;47.766;8.846;2023-04-24T14:17:35;0.90;;;0.80;;
15952;SDS011;8075;47.766;8.846;2023-04-24T14:20:01;1.33;;;0.90;;
15952;SDS011;8075;47.766;8.846;2023-04-24T14:22:29;1.33;;;0.93;;
15952;SDS011;8075;47.766;8.846;2023-04-24T14:24:55;1.73;;;0.77;;
15952;SDS011;8075;47.766;8.846;2023-04-24T14:27:21;1.23;;;0.90;;
15952;SDS011;8075;47.766;8.846;2023-04-24T14:29:47;2.37;;;0.90;;
15952;SDS011;8075;47.766;8.846;2023-04-24T14:32:13;2.28;;;0.90;;
15952;SDS011;8075;47.766;8.846;2023-04-24T14:34:40;1.40;;;0.90;;
15952;SDS011;8075;47.766;8.846;2023-04-24T14:37:06;1.40;;;0.90;;
15952;SDS011;8075;47.766;8.846;2023-04-24T14:39:32;1.60;;;0.90;;
15952;SDS011;8075;47.766;8.846;2023-04-24T14:42:00;2.33;;;0.88;;
15952;SDS011;8075;47.766;8.846;2023-04-24T14:44:26;1.35;;;1.00;;
15952;SDS011;8075;47.766;8.846;2023-04-24T14:46:52;1.43;;;1.10;;
15952;SDS011;8075;47.766;8.846;2023-04-24T14:49:18;2.13;;;1.00;;
15952;SDS011;8075;47.766;8.846;2023-04-24T14:51:44;2.20;;;1.05;;
15952;SDS011;8075;47.766;8.846;2023-04-24T14:54:10;1.42;;;1.00;;
15952;SDS011;8075;47.766;8.846;2023-04-24T14:56:36;1.10;;;0.90;;
15952;SDS011;8075;47.766;8.846;2023-04-24T14:59:04;1.98;;;1.08;;
15952;SDS011;8075;47.766;8.846;2023-04-24T15:01:30;2.33;;;1.10;;
15952;SDS011;8075;47.766;8.846;2023-04-24T15:03:56;2.38;;;1.05;;
15952;SDS011;8075;47.766;8.846;2023-04-24T15:06:22;1.20;;;0.93;;
15952;SDS011;8075;47.766;8.846;2023-04-24T15:08:48;1.23;;;0.93;;
15952;SDS011;8075;47.766;8.846;2023-04-24T15:11:14;1.90;;;1.00;;